sensor_id;sensor_type;location;lat;lon;timestamp;P1;durP1;ratioP1;P2;durP2;ratioP2
19301;SDS011;9785;59.362;12.152;2023-03-23T00:01:36;37.83;;;4.83;;
19301;SDS011;9785;59.362;12.152;2023-03-23T00:04:07;47.77;;;5.50;;
19301;SDS011;9785;59.362;12.152;2023-03-23T00:06:39;41.43;;;4.70;;
19301;SDS011;9785;59.362;12.152;2023-03-23T00:09:07;40.90;;;4.87;;
19301;SDS011;9785;59.362;12.152;2023-03-23T00:11:35;33.30;;;4.47;;
19301;SDS011;9785;59.362;12.152;2023-03-23T00:14:04;37.57;;;5.17;;
19301;SDS011;9785;59.362;12.152;2023-03-23T00:16:39;37.67;;;4.30;;
19301;SDS011;9785;59.362;12.152;2023-03-23T00:19:09;36.50;;;4.17;;
19301;SDS011;9785;59.362;12.152;2023-03-23T00:21:38;46.87;;;4.47;;
19301;SDS011;9785;59.362;12.152;2023-03-23T00:24:07;31.30;;;4.47;;
19301;SDS011;9785;59.362;12.152;2023-03-23T00:26:36;32.67;;;4.20;;
19301;SDS011;9785;59.362;12.152;2023-03-23T00:29:08;43.77;;;5.00;;
19301;SDS011;9785;59.362;12.152;2023-03-23T00:31:43;40.47;;;5.47;;
19301;SDS011;9785;59.362;12.152;2023-03-23T00:34:14;37.17;;;4.40;;
19301;SDS011;9785;59.362;12.152;2023-03-23T00:36:49;41.90;;;4.60;;
19301;SDS011;9785;59.362;12.152;2023-03-23T00:39:21;50.17;;;5.03;;
19301;SDS011;9785;59.362;12.152;2023-03-23T00:41:52;40.03;;;3.77;;
19301;SDS011;9785;59.362;12.152;2023-03-23T00:44:27;44.30;;;5.10;;
19301;SDS011;9785;59.362;12.152;2023-03-23T00:47:01;34.07;;;4.93;;
19301;SDS011;9785;59.362;12.152;2023-03-23T00:49:29;45.20;;;4.57;;
19301;SDS011;9785;59.362;12.152;2023-03-23T00:52:01;46.83;;;5.07;;
19301;SDS011;9785;59.362;12.152;2023-03-23T00:54:31;42.90;;;5.23;;
19301;SDS011;9785;59.362;12.152;2023-03-23T00:57:00;27.63;;;3.87;;
19301;SDS011;9785;59.362;12.152;2023-03-23T00:59:31;27.83;;;4.10;;
19301;SDS011;9785;59.362;12.152;2023-03-23T01:02:03;30.73;;;5.07;;
19301;SDS011;9785;59.362;12.152;2023-03-23T01:04:33;33.53;;;4.90;;
19301;SDS011;9785;59.362;12.152;2023-03-23T01:07:03;42.53;;;4.63;;
19301;SDS011;9785;59.362;12.152;2023-03-23T01:09:35;37.37;;;4.30;;
19301;SDS011;9785;59.362;12.152;2023-03-23T01:12:06;36.53;;;5.43;;
19301;SDS011;9785;59.362;12.152;2023-03-23T01:14:34;49.40;;;5.47;;
19301;SDS011;9785;59.362;12.152;2023-03-23T01:17:03;35.13;;;4.57;;
19301;SDS011;9785;59.362;12.152;2023-03-23T01:19:33;39.00;;;4.67;;
19301;SDS011;9785;59.362;12.152;2023-03-23T01:22:01;29.37;;;3.93;;
19301;SDS011;9785;59.362;12.152;2023-03-23T01:24:28;32.37;;;4.03;;
19301;SDS011;9785;59.362;12.152;2023-03-23T01:26:57;50.37;;;5.10;;
19301;SDS011;9785;59.362;12.152;2023-03-23T01:29:29;32.60;;;4.40;;
19301;SDS011;9785;59.362;12.152;2023-03-23T01:31:59;29.53;;;4.30;;
19301;SDS011;9785;59.362;12.152;2023-03-23T01:34:28;43.50;;;4.00;;
19301;SDS011;9785;59.362;12.152;2023-03-23T01:36:59;36.10;;;4.50;;
19301;SDS011;9785;59.362;12.152;2023-03-23T01:39:29;37.77;;;5.17;;
19301;SDS011;9785;59.362;12.152;2023-03-23T01:41:58;27.63;;;4.97;;
19301;SDS011;9785;59.362;12.152;2023-03-23T01:47:13;40.70;;;5.00;;
19301;SDS011;9785;59.362;12.152;2023-03-23T01:49:42;32.77;;;4.40;;
19301;SDS011;9785;59.362;12.152;2023-03-23T01:52:12;37.90;;;4.77;;
19301;SDS011;9785;59.362;12.152;2023-03-23T01:54:42;36.93;;;4.20;;
19301;SDS011;9785;59.362;12.152;2023-03-23T01:57:12;36.33;;;4.50;;
19301;SDS011;9785;59.362;12.152;2023-03-23T01:59:43;29.87;;;3.80;;
19301;SDS011;9785;59.362;12.152;2023-03-23T02:02:15;37.60;;;5.47;;
19301;SDS011;9785;59.362;12.152;2023-03-23T02:04:48;29.43;;;4.23;;
19301;SDS011;9785;59.362;12.152;2023-03-23T02:07:20;42.43;;;4.93;;
19301;SDS011;9785;59.362;12.152;2023-03-23T02:09:49;35.03;;;3.93;;
19301;SDS011;9785;59.362;12.152;2023-03-23T02:12:19;36.57;;;5.47;;
19301;SDS011;9785;59.362;12.152;2023-03-23T02:14:48;28.57;;;4.13;;
19301;SDS011;9785;59.362;12.152;2023-03-23T02:17:22;24.23;;;4.00;;
19301;SDS011;9785;59.362;12.152;2023-03-23T02:20:01;36.33;;;4.80;;
19301;SDS011;9785;59.362;12.152;2023-03-23T02:22:40;29.23;;;4.33;;
19301;SDS011;9785;59.362;12.152;2023-03-23T02:25:19;37.10;;;4.70;;
19301;SDS011;9785;59.362;12.152;2023-03-23T02:30:47;41.07;;;4.17;;
19301;SDS011;9785;59.362;12.152;2023-03-23T02:33:28;31.50;;;4.80;;
19301;SDS011;9785;59.362;12.152;2023-03-23T02:35:59;25.00;;;3.90;;
19301;SDS011;9785;59.362;12.152;2023-03-23T02:38:32;38.30;;;4.80;;
19301;SDS011;9785;59.362;12.152;2023-03-23T02:41:01;35.43;;;4.77;;
19301;SDS011;9785;59.362;12.152;2023-03-23T02:43:31;31.27;;;4.30;;
19301;SDS011;9785;59.362;12.152;2023-03-23T02:46:02;39.10;;;4.70;;
19301;SDS011;9785;59.362;12.152;2023-03-23T02:48:33;39.93;;;4.67;;
19301;SDS011;9785;59.362;12.152;2023-03-23T02:51:01;39.37;;;4.60;;
19301;SDS011;9785;59.362;12.152;2023-03-23T02:53:29;30.23;;;3.73;;
19301;SDS011;9785;59.362;12.152;2023-03-23T02:55:57;31.03;;;4.13;;
19301;SDS011;9785;59.362;12.152;2023-03-23T02:58:28;35.10;;;4.53;;
19301;SDS011;9785;59.362;12.152;2023-03-23T03:00:58;23.33;;;4.17;;
19301;SDS011;9785;59.362;12.152;2023-03-23T03:03:27;37.00;;;5.10;;
19301;SDS011;9785;59.362;12.152;2023-03-23T03:05:58;35.20;;;4.80;;
19301;SDS011;9785;59.362;12.152;2023-03-23T03:08:29;25.30;;;3.70;;
19301;SDS011;9785;59.362;12.152;2023-03-23T03:11:00;30.33;;;3.90;;
19301;SDS011;9785;59.362;12.152;2023-03-23T03:13:31;39.77;;;4.97;;
19301;SDS011;9785;59.362;12.152;2023-03-23T03:16:00;32.20;;;5.90;;
19301;SDS011;9785;59.362;12.152;2023-03-23T03:18:32;33.73;;;4.80;;
19301;SDS011;9785;59.362;12.152;2023-03-23T03:21:04;39.20;;;4.50;;
19301;SDS011;9785;59.362;12.152;2023-03-23T03:23:33;28.20;;;4.40;;
19301;SDS011;9785;59.362;12.152;2023-03-23T03:26:03;32.00;;;4.87;;
19301;SDS011;9785;59.362;12.152;2023-03-23T03:28:37;24.37;;;4.67;;
19301;SDS011;9785;59.362;12.152;2023-03-23T03:31:06;35.50;;;4.40;;
19301;SDS011;9785;59.362;12.152;2023-03-23T03:33:37;32.13;;;5.77;;
19301;SDS011;9785;59.362;12.152;2023-03-23T03:36:14;32.90;;;4.80;;
19301;SDS011;9785;59.362;12.152;2023-03-23T03:38:45;37.83;;;4.63;;
19301;SDS011;9785;59.362;12.152;2023-03-23T03:41:17;38.00;;;4.53;;
19301;SDS011;9785;59.362;12.152;2023-03-23T03:43:46;23.23;;;4.07;;
19301;SDS011;9785;59.362;12.152;2023-03-23T03:46:15;33.20;;;4.23;;
19301;SDS011;9785;59.362;12.152;2023-03-23T03:48:44;37.43;;;4.47;;
19301;SDS011;9785;59.362;12.152;2023-03-23T03:51:14;32.63;;;5.50;;
19301;SDS011;9785;59.362;12.152;2023-03-23T03:53:46;33.60;;;4.60;;
19301;SDS011;9785;59.362;12.152;2023-03-23T03:56:15;40.90;;;5.67;;
19301;SDS011;9785;59.362;12.152;2023-03-23T03:58:46;33.43;;;4.80;;
19301;SDS011;9785;59.362;12.152;2023-03-23T04:01:14;36.40;;;5.43;;
19301;SDS011;9785;59.362;12.152;2023-03-23T04:03:43;33.80;;;4.83;;
19301;SDS011;9785;59.362;12.152;2023-03-23T04:06:10;31.40;;;5.67;;
19301;SDS011;9785;59.362;12.152;2023-03-23T04:08:40;33.23;;;4.47;;
19301;SDS011;9785;59.362;12.152;2023-03-23T04:11:08;26.57;;;5.00;;
19301;SDS011;9785;59.362;12.152;2023-03-23T04:13:37;28.37;;;5.33;;
19301;SDS011;9785;59.362;12.152;2023-03-23T04:16:05;33.37;;;4.53;;
19301;SDS011;9785;59.362;12.152;2023-03-23T04:18:33;31.83;;;5.13;;
19301;SDS011;9785;59.362;12.152;2023-03-23T04:21:01;24.53;;;4.40;;
19301;SDS011;9785;59.362;12.152;2023-03-23T04:23:29;30.37;;;5.37;;
19301;SDS011;9785;59.362;12.152;2023-03-23T04:26:03;32.43;;;5.03;;
19301;SDS011;9785;59.362;12.152;2023-03-23T04:28:31;33.37;;;5.10;;
19301;SDS011;9785;59.362;12.152;2023-03-23T04:30:59;35.03;;;5.27;;
19301;SDS011;9785;59.362;12.152;2023-03-23T04:33:28;35.13;;;4.83;;
19301;SDS011;9785;59.362;12.152;2023-03-23T04:35:56;33.80;;;5.13;;
19301;SDS011;9785;59.362;12.152;2023-03-23T04:38:26;35.23;;;5.30;;
19301;SDS011;9785;59.362;12.152;2023-03-23T04:40:54;38.93;;;5.47;;
19301;SDS011;9785;59.362;12.152;2023-03-23T04:43:23;26.73;;;5.30;;
19301;SDS011;9785;59.362;12.152;2023-03-23T04:45:52;39.20;;;5.03;;
19301;SDS011;9785;59.362;12.152;2023-03-23T04:48:21;22.63;;;5.33;;
19301;SDS011;9785;59.362;12.152;2023-03-23T04:50:49;36.67;;;4.87;;
19301;SDS011;9785;59.362;12.152;2023-03-23T04:53:17;34.63;;;4.87;;
19301;SDS011;9785;59.362;12.152;2023-03-23T04:55:45;30.90;;;4.57;;
19301;SDS011;9785;59.362;12.152;2023-03-23T04:58:15;29.23;;;4.53;;
19301;SDS011;9785;59.362;12.152;2023-03-23T05:00:48;24.13;;;4.40;;
19301;SDS011;9785;59.362;12.152;2023-03-23T05:03:17;32.77;;;5.43;;
19301;SDS011;9785;59.362;12.152;2023-03-23T05:05:45;26.57;;;4.73;;
19301;SDS011;9785;59.362;12.152;2023-03-23T05:08:17;27.97;;;4.90;;
19301;SDS011;9785;59.362;12.152;2023-03-23T05:10:49;22.07;;;4.83;;
19301;SDS011;9785;59.362;12.152;2023-03-23T05:13:17;23.27;;;4.07;;
19301;SDS011;9785;59.362;12.152;2023-03-23T05:15:46;28.23;;;4.33;;
19301;SDS011;9785;59.362;12.152;2023-03-23T05:18:14;25.83;;;4.50;;
19301;SDS011;9785;59.362;12.152;2023-03-23T05:20:42;24.83;;;4.43;;
19301;SDS011;9785;59.362;12.152;2023-03-23T05:23:11;26.63;;;4.80;;
19301;SDS011;9785;59.362;12.152;2023-03-23T05:25:40;22.97;;;4.43;;
19301;SDS011;9785;59.362;12.152;2023-03-23T05:28:10;27.43;;;4.80;;
19301;SDS011;9785;59.362;12.152;2023-03-23T05:30:38;35.20;;;4.80;;
19301;SDS011;9785;59.362;12.152;2023-03-23T05:33:09;29.13;;;4.47;;
19301;SDS011;9785;59.362;12.152;2023-03-23T05:35:36;27.23;;;4.23;;
19301;SDS011;9785;59.362;12.152;2023-03-23T05:38:04;28.77;;;5.90;;
19301;SDS011;9785;59.362;12.152;2023-03-23T05:40:33;22.53;;;4.43;;
19301;SDS011;9785;59.362;12.152;2023-03-23T05:43:00;29.67;;;5.17;;
19301;SDS011;9785;59.362;12.152;2023-03-23T05:45:28;19.50;;;5.00;;
19301;SDS011;9785;59.362;12.152;2023-03-23T05:47:55;23.43;;;4.93;;
19301;SDS011;9785;59.362;12.152;2023-03-23T05:50:24;23.60;;;4.90;;
19301;SDS011;9785;59.362;12.152;2023-03-23T05:52:53;24.93;;;5.27;;
19301;SDS011;9785;59.362;12.152;2023-03-23T05:55:23;26.83;;;4.30;;
19301;SDS011;9785;59.362;12.152;2023-03-23T05:57:53;23.87;;;4.27;;
19301;SDS011;9785;59.362;12.152;2023-03-23T06:00:21;20.43;;;4.20;;
19301;SDS011;9785;59.362;12.152;2023-03-23T06:02:54;23.53;;;4.50;;
19301;SDS011;9785;59.362;12.152;2023-03-23T06:05:22;30.57;;;5.20;;
19301;SDS011;9785;59.362;12.152;2023-03-23T06:07:52;23.43;;;4.60;;
19301;SDS011;9785;59.362;12.152;2023-03-23T06:10:24;22.10;;;4.03;;
19301;SDS011;9785;59.362;12.152;2023-03-23T06:12:56;28.60;;;4.17;;
19301;SDS011;9785;59.362;12.152;2023-03-23T06:15:25;25.80;;;4.53;;
19301;SDS011;9785;59.362;12.152;2023-03-23T06:17:57;23.70;;;4.97;;
19301;SDS011;9785;59.362;12.152;2023-03-23T06:20:28;18.73;;;3.90;;
19301;SDS011;9785;59.362;12.152;2023-03-23T06:23:00;21.50;;;4.47;;
19301;SDS011;9785;59.362;12.152;2023-03-23T06:25:29;28.87;;;4.63;;
19301;SDS011;9785;59.362;12.152;2023-03-23T06:27:58;20.80;;;4.47;;
19301;SDS011;9785;59.362;12.152;2023-03-23T06:30:27;31.23;;;4.73;;
19301;SDS011;9785;59.362;12.152;2023-03-23T06:32:56;24.03;;;4.63;;
19301;SDS011;9785;59.362;12.152;2023-03-23T06:35:24;25.80;;;4.07;;
19301;SDS011;9785;59.362;12.152;2023-03-23T06:37:52;19.20;;;4.90;;
19301;SDS011;9785;59.362;12.152;2023-03-23T06:40:26;23.00;;;4.83;;
19301;SDS011;9785;59.362;12.152;2023-03-23T06:42:56;27.03;;;4.27;;
19301;SDS011;9785;59.362;12.152;2023-03-23T06:45:25;20.13;;;5.00;;
19301;SDS011;9785;59.362;12.152;2023-03-23T06:47:53;19.00;;;4.13;;
19301;SDS011;9785;59.362;12.152;2023-03-23T06:50:23;25.27;;;4.37;;
19301;SDS011;9785;59.362;12.152;2023-03-23T06:52:53;33.53;;;4.37;;
19301;SDS011;9785;59.362;12.152;2023-03-23T06:55:22;34.67;;;4.23;;
19301;SDS011;9785;59.362;12.152;2023-03-23T06:57:50;25.20;;;4.27;;
19301;SDS011;9785;59.362;12.152;2023-03-23T07:00:18;21.33;;;4.13;;
19301;SDS011;9785;59.362;12.152;2023-03-23T07:02:45;23.03;;;4.33;;
19301;SDS011;9785;59.362;12.152;2023-03-23T07:05:13;26.30;;;4.20;;
19301;SDS011;9785;59.362;12.152;2023-03-23T07:07:41;21.17;;;3.63;;
19301;SDS011;9785;59.362;12.152;2023-03-23T07:10:09;19.70;;;3.40;;
19301;SDS011;9785;59.362;12.152;2023-03-23T07:12:38;22.70;;;3.70;;
19301;SDS011;9785;59.362;12.152;2023-03-23T07:15:07;17.00;;;3.97;;
19301;SDS011;9785;59.362;12.152;2023-03-23T07:17:36;25.13;;;4.47;;
19301;SDS011;9785;59.362;12.152;2023-03-23T07:20:03;30.10;;;4.83;;
19301;SDS011;9785;59.362;12.152;2023-03-23T07:22:31;30.97;;;4.93;;
19301;SDS011;9785;59.362;12.152;2023-03-23T07:24:58;18.80;;;3.93;;
19301;SDS011;9785;59.362;12.152;2023-03-23T07:27:26;23.53;;;3.93;;
19301;SDS011;9785;59.362;12.152;2023-03-23T07:29:57;28.80;;;4.53;;
19301;SDS011;9785;59.362;12.152;2023-03-23T07:32:29;25.93;;;4.67;;
19301;SDS011;9785;59.362;12.152;2023-03-23T07:34:59;28.07;;;4.37;;
19301;SDS011;9785;59.362;12.152;2023-03-23T07:37:26;23.17;;;4.33;;
19301;SDS011;9785;59.362;12.152;2023-03-23T07:39:54;23.27;;;4.13;;
19301;SDS011;9785;59.362;12.152;2023-03-23T07:42:23;25.83;;;4.33;;
19301;SDS011;9785;59.362;12.152;2023-03-23T07:44:51;24.00;;;3.83;;
19301;SDS011;9785;59.362;12.152;2023-03-23T07:47:20;23.87;;;4.30;;
19301;SDS011;9785;59.362;12.152;2023-03-23T07:49:48;24.80;;;4.43;;
19301;SDS011;9785;59.362;12.152;2023-03-23T07:52:15;28.17;;;4.73;;
19301;SDS011;9785;59.362;12.152;2023-03-23T07:54:43;18.43;;;3.80;;
19301;SDS011;9785;59.362;12.152;2023-03-23T07:57:11;23.20;;;4.00;;
19301;SDS011;9785;59.362;12.152;2023-03-23T07:59:41;23.00;;;4.33;;
19301;SDS011;9785;59.362;12.152;2023-03-23T08:02:11;19.40;;;3.70;;
19301;SDS011;9785;59.362;12.152;2023-03-23T08:04:46;17.23;;;3.70;;
19301;SDS011;9785;59.362;12.152;2023-03-23T08:07:17;22.57;;;4.20;;
19301;SDS011;9785;59.362;12.152;2023-03-23T08:09:45;19.73;;;3.60;;
19301;SDS011;9785;59.362;12.152;2023-03-23T08:12:13;17.40;;;3.43;;
19301;SDS011;9785;59.362;12.152;2023-03-23T08:14:41;22.90;;;3.57;;
19301;SDS011;9785;59.362;12.152;2023-03-23T08:17:08;18.17;;;3.67;;
19301;SDS011;9785;59.362;12.152;2023-03-23T08:19:36;18.27;;;3.60;;
19301;SDS011;9785;59.362;12.152;2023-03-23T08:22:05;24.47;;;4.03;;
19301;SDS011;9785;59.362;12.152;2023-03-23T08:24:33;17.37;;;3.53;;
19301;SDS011;9785;59.362;12.152;2023-03-23T08:27:00;14.60;;;3.03;;
19301;SDS011;9785;59.362;12.152;2023-03-23T08:29:29;15.57;;;3.07;;
19301;SDS011;9785;59.362;12.152;2023-03-23T08:31:59;12.10;;;3.00;;
19301;SDS011;9785;59.362;12.152;2023-03-23T08:34:28;9.10;;;3.17;;
19301;SDS011;9785;59.362;12.152;2023-03-23T08:36:56;14.60;;;2.90;;
19301;SDS011;9785;59.362;12.152;2023-03-23T08:39:25;16.77;;;3.50;;
19301;SDS011;9785;59.362;12.152;2023-03-23T08:41:53;14.67;;;3.00;;
19301;SDS011;9785;59.362;12.152;2023-03-23T08:44:20;14.40;;;3.33;;
19301;SDS011;9785;59.362;12.152;2023-03-23T08:46:48;17.23;;;3.50;;
19301;SDS011;9785;59.362;12.152;2023-03-23T08:49:19;15.13;;;3.23;;
19301;SDS011;9785;59.362;12.152;2023-03-23T08:51:47;15.33;;;3.07;;
19301;SDS011;9785;59.362;12.152;2023-03-23T08:54:14;13.03;;;3.03;;
19301;SDS011;9785;59.362;12.152;2023-03-23T08:56:43;23.50;;;4.07;;
19301;SDS011;9785;59.362;12.152;2023-03-23T08:59:11;18.77;;;3.20;;
19301;SDS011;9785;59.362;12.152;2023-03-23T09:01:39;15.50;;;3.93;;
19301;SDS011;9785;59.362;12.152;2023-03-23T09:04:07;17.80;;;4.30;;
19301;SDS011;9785;59.362;12.152;2023-03-23T09:06:35;21.77;;;3.63;;
19301;SDS011;9785;59.362;12.152;2023-03-23T09:09:03;20.40;;;3.30;;
19301;SDS011;9785;59.362;12.152;2023-03-23T09:11:32;18.97;;;3.33;;
19301;SDS011;9785;59.362;12.152;2023-03-23T09:14:01;13.60;;;3.40;;
19301;SDS011;9785;59.362;12.152;2023-03-23T09:16:28;19.43;;;3.80;;
19301;SDS011;9785;59.362;12.152;2023-03-23T09:18:56;18.97;;;3.37;;
19301;SDS011;9785;59.362;12.152;2023-03-23T09:21:24;15.10;;;3.37;;
19301;SDS011;9785;59.362;12.152;2023-03-23T09:23:51;18.37;;;2.87;;
19301;SDS011;9785;59.362;12.152;2023-03-23T09:26:25;20.97;;;3.47;;
19301;SDS011;9785;59.362;12.152;2023-03-23T09:28:57;16.53;;;3.23;;
19301;SDS011;9785;59.362;12.152;2023-03-23T09:31:28;15.80;;;3.27;;
19301;SDS011;9785;59.362;12.152;2023-03-23T09:33:57;21.30;;;3.53;;
19301;SDS011;9785;59.362;12.152;2023-03-23T09:36:29;14.90;;;3.40;;
19301;SDS011;9785;59.362;12.152;2023-03-23T09:38:57;14.40;;;3.40;;
19301;SDS011;9785;59.362;12.152;2023-03-23T09:41:38;14.13;;;3.33;;
19301;SDS011;9785;59.362;12.152;2023-03-23T09:44:14;20.37;;;3.20;;
19301;SDS011;9785;59.362;12.152;2023-03-23T09:46:51;17.70;;;3.33;;
19301;SDS011;9785;59.362;12.152;2023-03-23T09:49:21;15.13;;;3.43;;
19301;SDS011;9785;59.362;12.152;2023-03-23T09:51:53;14.20;;;3.03;;
19301;SDS011;9785;59.362;12.152;2023-03-23T09:54:24;18.97;;;3.40;;
19301;SDS011;9785;59.362;12.152;2023-03-23T09:56:55;22.57;;;4.00;;
19301;SDS011;9785;59.362;12.152;2023-03-23T09:59:27;11.87;;;3.10;;
19301;SDS011;9785;59.362;12.152;2023-03-23T10:02:03;14.90;;;3.50;;
19301;SDS011;9785;59.362;12.152;2023-03-23T10:04:41;16.30;;;3.50;;
19301;SDS011;9785;59.362;12.152;2023-03-23T10:07:16;13.67;;;3.20;;
19301;SDS011;9785;59.362;12.152;2023-03-23T10:09:45;20.70;;;3.83;;
19301;SDS011;9785;59.362;12.152;2023-03-23T10:12:18;18.33;;;3.57;;
19301;SDS011;9785;59.362;12.152;2023-03-23T10:14:50;13.97;;;3.13;;
19301;SDS011;9785;59.362;12.152;2023-03-23T10:17:22;10.67;;;3.17;;
19301;SDS011;9785;59.362;12.152;2023-03-23T10:19:52;15.77;;;3.40;;
19301;SDS011;9785;59.362;12.152;2023-03-23T10:22:25;15.50;;;3.20;;
19301;SDS011;9785;59.362;12.152;2023-03-23T10:24:56;11.30;;;4.00;;
19301;SDS011;9785;59.362;12.152;2023-03-23T10:27:26;11.87;;;3.23;;
19301;SDS011;9785;59.362;12.152;2023-03-23T10:30:01;14.57;;;3.37;;
19301;SDS011;9785;59.362;12.152;2023-03-23T10:32:39;11.33;;;3.33;;
19301;SDS011;9785;59.362;12.152;2023-03-23T10:35:11;13.07;;;3.27;;
19301;SDS011;9785;59.362;12.152;2023-03-23T10:37:42;11.07;;;3.07;;
19301;SDS011;9785;59.362;12.152;2023-03-23T10:40:13;11.13;;;3.03;;
19301;SDS011;9785;59.362;12.152;2023-03-23T10:42:44;15.10;;;3.60;;
19301;SDS011;9785;59.362;12.152;2023-03-23T10:45:15;15.87;;;3.20;;
19301;SDS011;9785;59.362;12.152;2023-03-23T10:47:46;15.50;;;3.50;;
19301;SDS011;9785;59.362;12.152;2023-03-23T10:50:16;15.40;;;3.23;;
19301;SDS011;9785;59.362;12.152;2023-03-23T10:52:44;11.37;;;3.30;;
19301;SDS011;9785;59.362;12.152;2023-03-23T10:55:12;16.43;;;3.73;;
19301;SDS011;9785;59.362;12.152;2023-03-23T10:57:41;13.57;;;3.03;;
19301;SDS011;9785;59.362;12.152;2023-03-23T11:00:17;8.87;;;3.00;;
19301;SDS011;9785;59.362;12.152;2023-03-23T11:02:57;10.20;;;2.67;;
19301;SDS011;9785;59.362;12.152;2023-03-23T11:05:26;16.93;;;3.50;;
19301;SDS011;9785;59.362;12.152;2023-03-23T11:07:55;16.03;;;3.40;;
19301;SDS011;9785;59.362;12.152;2023-03-23T11:10:23;17.93;;;3.93;;
19301;SDS011;9785;59.362;12.152;2023-03-23T11:12:51;18.83;;;3.60;;
19301;SDS011;9785;59.362;12.152;2023-03-23T11:15:24;21.97;;;3.53;;
19301;SDS011;9785;59.362;12.152;2023-03-23T11:17:58;15.20;;;3.50;;
19301;SDS011;9785;59.362;12.152;2023-03-23T11:20:26;18.43;;;4.07;;
19301;SDS011;9785;59.362;12.152;2023-03-23T11:22:54;17.80;;;3.80;;
19301;SDS011;9785;59.362;12.152;2023-03-23T11:25:22;18.77;;;3.97;;
19301;SDS011;9785;59.362;12.152;2023-03-23T11:27:53;15.63;;;3.70;;
19301;SDS011;9785;59.362;12.152;2023-03-23T11:30:25;16.30;;;3.23;;
19301;SDS011;9785;59.362;12.152;2023-03-23T11:32:54;18.07;;;3.10;;
19301;SDS011;9785;59.362;12.152;2023-03-23T11:35:27;26.63;;;5.20;;
19301;SDS011;9785;59.362;12.152;2023-03-23T11:37:58;13.17;;;3.70;;
19301;SDS011;9785;59.362;12.152;2023-03-23T11:40:31;16.80;;;3.53;;
19301;SDS011;9785;59.362;12.152;2023-03-23T11:43:07;13.73;;;3.20;;
19301;SDS011;9785;59.362;12.152;2023-03-23T11:45:37;19.93;;;4.30;;
19301;SDS011;9785;59.362;12.152;2023-03-23T11:48:10;12.33;;;3.00;;
19301;SDS011;9785;59.362;12.152;2023-03-23T11:50:51;24.47;;;3.50;;
19301;SDS011;9785;59.362;12.152;2023-03-23T11:53:27;14.20;;;3.20;;
19301;SDS011;9785;59.362;12.152;2023-03-23T11:56:01;12.63;;;2.93;;
19301;SDS011;9785;59.362;12.152;2023-03-23T11:58:34;16.90;;;3.00;;
19301;SDS011;9785;59.362;12.152;2023-03-23T12:01:07;7.73;;;2.73;;
19301;SDS011;9785;59.362;12.152;2023-03-23T12:03:44;8.13;;;2.57;;
19301;SDS011;9785;59.362;12.152;2023-03-23T12:06:19;13.87;;;2.83;;
19301;SDS011;9785;59.362;12.152;2023-03-23T12:08:53;10.20;;;2.50;;
19301;SDS011;9785;59.362;12.152;2023-03-23T12:11:27;11.23;;;2.53;;
19301;SDS011;9785;59.362;12.152;2023-03-23T12:14:02;11.93;;;2.80;;
19301;SDS011;9785;59.362;12.152;2023-03-23T12:16:38;3.97;;;1.90;;
19301;SDS011;9785;59.362;12.152;2023-03-23T12:19:13;8.97;;;2.53;;
19301;SDS011;9785;59.362;12.152;2023-03-23T12:21:47;9.23;;;2.80;;
19301;SDS011;9785;59.362;12.152;2023-03-23T12:24:21;7.97;;;2.63;;
19301;SDS011;9785;59.362;12.152;2023-03-23T12:26:56;10.87;;;2.67;;
19301;SDS011;9785;59.362;12.152;2023-03-23T12:29:34;9.33;;;2.63;;
19301;SDS011;9785;59.362;12.152;2023-03-23T12:34:57;8.80;;;2.50;;
19301;SDS011;9785;59.362;12.152;2023-03-23T12:37:35;9.50;;;2.60;;
19301;SDS011;9785;59.362;12.152;2023-03-23T12:40:19;11.33;;;3.07;;
19301;SDS011;9785;59.362;12.152;2023-03-23T12:42:54;13.60;;;3.07;;
19301;SDS011;9785;59.362;12.152;2023-03-23T12:45:40;12.50;;;3.27;;
19301;SDS011;9785;59.362;12.152;2023-03-23T12:48:13;9.97;;;2.40;;
19301;SDS011;9785;59.362;12.152;2023-03-23T12:50:59;14.03;;;2.57;;
19301;SDS011;9785;59.362;12.152;2023-03-23T12:53:32;12.13;;;2.70;;
19301;SDS011;9785;59.362;12.152;2023-03-23T12:56:06;11.27;;;2.67;;
19301;SDS011;9785;59.362;12.152;2023-03-23T12:58:40;10.30;;;2.83;;
19301;SDS011;9785;59.362;12.152;2023-03-23T13:01:13;12.07;;;3.13;;
19301;SDS011;9785;59.362;12.152;2023-03-23T13:03:49;9.27;;;2.50;;
19301;SDS011;9785;59.362;12.152;2023-03-23T13:06:21;7.63;;;2.20;;
19301;SDS011;9785;59.362;12.152;2023-03-23T13:08:57;5.50;;;2.23;;
19301;SDS011;9785;59.362;12.152;2023-03-23T13:11:31;12.30;;;2.80;;
19301;SDS011;9785;59.362;12.152;2023-03-23T13:14:03;10.13;;;2.70;;
19301;SDS011;9785;59.362;12.152;2023-03-23T13:16:35;12.43;;;2.57;;
19301;SDS011;9785;59.362;12.152;2023-03-23T13:19:08;7.27;;;2.67;;
19301;SDS011;9785;59.362;12.152;2023-03-23T13:21:41;9.93;;;3.20;;
19301;SDS011;9785;59.362;12.152;2023-03-23T13:24:12;9.70;;;2.53;;
19301;SDS011;9785;59.362;12.152;2023-03-23T13:26:41;11.43;;;3.03;;
19301;SDS011;9785;59.362;12.152;2023-03-23T13:29:12;15.10;;;3.23;;
19301;SDS011;9785;59.362;12.152;2023-03-23T13:31:46;11.17;;;2.90;;
19301;SDS011;9785;59.362;12.152;2023-03-23T13:34:17;10.43;;;2.87;;
19301;SDS011;9785;59.362;12.152;2023-03-23T13:36:51;14.67;;;3.40;;
19301;SDS011;9785;59.362;12.152;2023-03-23T13:39:26;7.37;;;3.40;;
19301;SDS011;9785;59.362;12.152;2023-03-23T13:42:02;14.60;;;3.27;;
19301;SDS011;9785;59.362;12.152;2023-03-23T13:44:40;13.23;;;3.37;;
19301;SDS011;9785;59.362;12.152;2023-03-23T13:47:16;12.03;;;3.80;;
19301;SDS011;9785;59.362;12.152;2023-03-23T13:49:48;14.33;;;4.10;;
19301;SDS011;9785;59.362;12.152;2023-03-23T13:52:17;7.90;;;4.13;;
19301;SDS011;9785;59.362;12.152;2023-03-23T13:54:46;11.23;;;4.10;;
19301;SDS011;9785;59.362;12.152;2023-03-23T13:57:23;10.80;;;3.90;;
19301;SDS011;9785;59.362;12.152;2023-03-23T13:59:56;11.30;;;4.00;;
19301;SDS011;9785;59.362;12.152;2023-03-23T14:02:36;6.83;;;3.63;;
19301;SDS011;9785;59.362;12.152;2023-03-23T14:07:53;7.30;;;3.17;;
19301;SDS011;9785;59.362;12.152;2023-03-23T14:10:22;10.43;;;3.37;;
19301;SDS011;9785;59.362;12.152;2023-03-23T14:12:50;6.50;;;3.17;;
19301;SDS011;9785;59.362;12.152;2023-03-23T14:15:20;6.03;;;3.10;;
19301;SDS011;9785;59.362;12.152;2023-03-23T14:17:47;8.10;;;3.03;;
19301;SDS011;9785;59.362;12.152;2023-03-23T14:20:19;8.83;;;3.10;;
19301;SDS011;9785;59.362;12.152;2023-03-23T14:22:52;9.87;;;3.03;;
19301;SDS011;9785;59.362;12.152;2023-03-23T14:25:22;7.40;;;2.80;;
19301;SDS011;9785;59.362;12.152;2023-03-23T14:27:50;4.77;;;2.60;;
19301;SDS011;9785;59.362;12.152;2023-03-23T14:30:19;6.73;;;2.67;;
19301;SDS011;9785;59.362;12.152;2023-03-23T14:32:50;11.27;;;3.43;;
19301;SDS011;9785;59.362;12.152;2023-03-23T14:35:23;5.37;;;2.90;;
19301;SDS011;9785;59.362;12.152;2023-03-23T14:37:53;5.30;;;2.80;;
19301;SDS011;9785;59.362;12.152;2023-03-23T14:40:26;8.40;;;3.10;;
19301;SDS011;9785;59.362;12.152;2023-03-23T14:42:55;7.17;;;2.83;;
19301;SDS011;9785;59.362;12.152;2023-03-23T14:45:23;6.93;;;2.80;;
19301;SDS011;9785;59.362;12.152;2023-03-23T14:47:56;16.83;;;2.80;;
19301;SDS011;9785;59.362;12.152;2023-03-23T14:50:26;8.07;;;3.07;;
19301;SDS011;9785;59.362;12.152;2023-03-23T14:53:02;6.17;;;3.17;;
19301;SDS011;9785;59.362;12.152;2023-03-23T14:55:31;7.37;;;2.90;;
19301;SDS011;9785;59.362;12.152;2023-03-23T14:58:05;10.07;;;3.20;;
19301;SDS011;9785;59.362;12.152;2023-03-23T15:00:34;7.87;;;2.90;;
19301;SDS011;9785;59.362;12.152;2023-03-23T15:03:04;9.70;;;2.73;;
19301;SDS011;9785;59.362;12.152;2023-03-23T15:05:33;11.37;;;3.30;;
19301;SDS011;9785;59.362;12.152;2023-03-23T15:08:02;12.90;;;3.30;;